Time;durP1;ratioP1;P1;durP2;ratioP2;P2;SDS_P1;SDS_P2;PMS_P1;PMS_P2;Temp;Humidity;BMP_temperature;BMP_pressure;BME280_temperature;BME280_humidity;BME280_pressure;Samples;Min_cycle;Max_cycle;Signal;HPM_P1;HPM_P2
2023/01/02 00:01:37;;;;;;;37.67;14.52;;;;;;;-2.54;100.00;100468.81;5055283;28;20040;-77
2023/01/02 00:04:03;;;;;;;28.23;12.68;;;;;;;-2.53;100.00;100477.56;5055202;28;20391;-77
2023/01/02 00:06:32;;;;;;;35.92;14.88;;;;;;;-2.74;100.00;100470.09;5071922;28;20044;-78
2023/01/02 00:08:58;;;;;;;33.47;15.88;;;;;;;-2.77;100.00;100470.28;5072080;28;20035;-78
2023/01/02 00:11:24;;;;;;;39.00;14.40;;;;;;;-2.77;100.00;100488.72;5055772;28;20036;-77
2023/01/02 00:13:52;;;;;;;38.38;17.83;;;;;;;-2.84;100.00;100482.13;5039617;28;20032;-77
2023/01/02 00:16:18;;;;;;;17.65;10.77;;;;;;;-2.66;100.00;100485.41;5039080;28;20040;-77
2023/01/02 00:18:44;;;;;;;23.13;10.88;;;;;;;-2.48;100.00;100496.53;5039031;28;20493;-77
2023/01/02 00:21:09;;;;;;;32.33;15.75;;;;;;;-2.45;100.00;100480.53;5042040;28;20523;-77
2023/01/02 00:23:35;;;;;;;61.20;19.38;;;;;;;-2.47;100.00;100478.00;5042553;28;20470;-77
2023/01/02 00:26:01;;;;;;;16.83;8.25;;;;;;;-2.27;100.00;100483.78;5042316;28;20037;-77
2023/01/02 00:28:27;;;;;;;18.50;10.10;;;;;;;-2.11;100.00;100479.19;5042114;28;20031;-77
2023/01/02 00:30:53;;;;;;;29.67;13.68;;;;;;;-1.97;100.00;100486.16;5025987;28;20032;-76
2023/01/02 00:33:18;;;;;;;27.08;13.15;;;;;;;-1.92;100.00;100488.50;5042158;28;20123;-77
2023/01/02 00:35:44;;;;;;;31.77;15.02;;;;;;;-1.93;100.00;100486.78;5058831;28;20048;-77
2023/01/02 00:38:10;;;;;;;25.20;13.10;;;;;;;-1.95;100.00;100484.28;5042046;28;20044;-76
2023/01/02 00:40:36;;;;;;;32.80;14.18;;;;;;;-1.95;100.00;100483.44;5075040;28;20082;-74
2023/01/02 00:43:01;;;;;;;27.30;13.98;;;;;;;-1.94;100.00;100485.94;5041951;28;20534;-77
2023/01/02 00:45:27;;;;;;;29.58;11.27;;;;;;;-1.90;100.00;100481.34;5042158;28;20382;-76
2023/01/02 00:47:53;;;;;;;16.80;9.80;;;;;;;-1.87;100.00;100497.78;5074789;28;20099;-76
2023/01/02 00:50:20;;;;;;;25.23;13.95;;;;;;;-1.95;100.00;100500.09;5058456;28;20137;-76
2023/01/02 00:52:46;;;;;;;30.23;12.02;;;;;;;-2.06;100.00;100492.88;5058422;28;20028;-75
2023/01/02 00:55:11;;;;;;;26.80;11.10;;;;;;;-2.16;100.00;100502.34;5041851;28;20119;-76
2023/01/02 00:57:37;;;;;;;25.75;10.50;;;;;;;-2.13;100.00;100506.56;5042096;28;20036;-76
2023/01/02 01:00:06;;;;;;;22.77;9.75;;;;;;;-2.17;100.00;100505.94;5042023;28;20039;-76
2023/01/02 01:02:32;;;;;;;32.95;11.60;;;;;;;-2.16;100.00;100517.31;5075048;28;20036;-75
2023/01/02 01:04:58;;;;;;;26.27;12.05;;;;;;;-2.24;100.00;100520.44;5041811;28;20032;-76
2023/01/02 01:07:26;;;;;;;19.85;8.35;;;;;;;-2.28;100.00;100535.56;5041755;28;20036;-76
2023/01/02 01:09:51;;;;;;;23.70;11.00;;;;;;;-2.36;100.00;100529.97;5058135;28;20035;-76
2023/01/02 01:12:17;;;;;;;27.48;12.63;;;;;;;-2.42;100.00;100538.25;5041750;28;20032;-78
2023/01/02 01:14:43;;;;;;;35.10;13.18;;;;;;;-2.53;100.00;100531.03;5057890;28;20056;-76
2023/01/02 01:17:08;;;;;;;24.33;10.73;;;;;;;-2.66;100.00;100536.25;5041739;28;20101;-76
2023/01/02 01:19:35;;;;;;;8.10;5.03;;;;;;;-2.64;100.00;100540.59;5041637;28;20390;-77
2023/01/02 01:22:00;;;;;;;15.95;6.75;;;;;;;-2.68;100.00;100524.94;5074464;28;20035;-76
2023/01/02 01:24:26;;;;;;;14.75;7.38;;;;;;;-2.67;100.00;100539.81;5041490;28;20036;-77
2023/01/02 01:26:52;;;;;;;20.15;8.57;;;;;;;-2.68;100.00;100543.38;5057639;28;20024;-77
2023/01/02 01:29:18;;;;;;;21.50;8.40;;;;;;;-2.73;100.00;100540.19;5041456;28;20131;-78
2023/01/02 01:31:44;;;;;;;16.42;7.65;;;;;;;-2.75;100.00;100542.09;5074342;28;20036;-74
2023/01/02 01:34:13;;;;;;;13.80;7.00;;;;;;;-2.69;100.00;100552.22;5057902;28;20040;-78
2023/01/02 01:36:39;;;;;;;12.60;7.40;;;;;;;-2.77;100.00;100554.50;5041129;28;20106;-76
2023/01/02 01:39:05;;;;;;;19.13;9.73;;;;;;;-2.89;100.00;100552.63;5041215;28;20041;-75
2023/01/02 01:41:30;;;;;;;17.40;8.43;;;;;;;-3.12;100.00;100548.78;5041062;28;20038;-75
2023/01/02 01:43:58;;;;;;;16.15;9.80;;;;;;;-3.22;100.00;100553.75;5041293;28;20413;-78
2023/01/02 01:46:42;;;;;;;16.08;9.70;;;;;;;-3.35;100.00;100552.78;5041139;28;20045;-76
2023/01/02 01:49:26;;;;;;;5.95;4.70;;;;;;;-3.70;100.00;100505.81;5041178;28;20044;-77
2023/01/02 01:51:54;;;;;;;20.15;7.80;;;;;;;-3.44;100.00;100540.19;5041114;28;20039;-77
2023/01/02 01:54:29;;;;;;;20.77;9.18;;;;;;;-3.30;100.00;100563.88;5074017;28;20039;-77
2023/01/02 01:56:59;;;;;;;17.27;7.75;;;;;;;-3.33;100.00;100557.03;5073910;28;20075;-78
2023/01/02 01:59:25;;;;;;;17.10;7.65;;;;;;;-3.44;100.00;100562.09;5073988;28;20028;-77
2023/01/02 02:01:51;;;;;;;13.25;7.82;;;;;;;-3.44;100.00;100574.34;5040807;28;20036;-77
2023/01/02 02:04:17;;;;;;;17.55;8.40;;;;;;;-3.44;100.00;100575.22;5040813;28;20474;-77
2023/01/02 02:06:44;;;;;;;10.23;6.72;;;;;;;-3.39;100.00;100582.81;5073684;28;20036;-76
2023/01/02 02:09:15;;;;;;;18.27;7.45;;;;;;;-3.41;100.00;100589.97;5073473;28;20036;-77
2023/01/02 02:11:42;;;;;;;8.50;5.72;;;;;;;-3.41;100.00;100584.72;5073472;28;20028;-77
2023/01/02 02:14:07;;;;;;;10.07;6.90;;;;;;;-3.46;100.00;100587.59;5073834;28;20547;-77
2023/01/02 02:16:57;;;;;;;9.02;5.57;;;;;;;-3.37;100.00;100601.97;5073571;28;20037;-77
2023/01/02 02:19:47;;;;;;;5.43;3.83;;;;;;;-3.27;100.00;100610.19;5073599;28;20405;-77
2023/01/02 02:22:19;;;;;;;10.15;5.57;;;;;;;-3.18;100.00;100617.50;5056953;28;20063;-75
2023/01/02 02:25:12;;;;;;;11.18;5.43;;;;;;;-3.14;100.00;100614.63;5057025;28;20040;-74
2023/01/02 02:27:48;;;;;;;11.70;6.05;;;;;;;-3.16;100.00;100616.47;5056762;28;20530;-77
2023/01/02 02:30:26;;;;;;;16.83;7.32;;;;;;;-3.29;100.00;100618.16;5056633;28;20364;-77
2023/01/02 02:33:31;;;;;;;7.38;4.68;;;;;;;-3.51;100.00;100622.97;5040144;28;20128;-77
2023/01/02 02:36:34;;;;;;;9.48;5.13;;;;;;;-3.63;100.00;100624.53;5073388;28;20070;-77
2023/01/02 02:39:48;;;;;;;10.10;4.53;;;;;;;-3.74;100.00;100635.66;5021815;28;20494;-75
2023/01/02 02:42:22;;;;;;;18.95;7.13;;;;;;;-3.73;100.00;100637.38;5050074;28;20417;-76
2023/01/02 02:45:22;;;;;;;13.80;6.30;;;;;;;-3.77;100.00;100646.34;5073341;28;20150;-75
2023/01/02 02:48:00;;;;;;;28.33;7.35;;;;;;;-3.84;100.00;100635.31;5031286;28;20505;-76
2023/01/02 02:50:43;;;;;;;17.50;9.13;;;;;;;-3.71;100.00;100658.28;5072958;28;20115;-76
2023/01/02 02:53:16;;;;;;;27.83;9.50;;;;;;;-3.68;100.00;100653.69;5040028;28;20047;-76
2023/01/02 02:55:46;;;;;;;33.33;11.63;;;;;;;-3.46;100.00;100671.72;5056084;28;20028;-75
2023/01/02 02:58:15;;;;;;;35.72;12.57;;;;;;;-3.30;100.00;100662.94;5039412;28;20391;-76
2023/01/02 03:00:40;;;;;;;26.27;11.52;;;;;;;-3.20;100.00;100662.31;5072748;28;20028;-76
2023/01/02 03:03:16;;;;;;;27.33;10.23;;;;;;;-3.05;100.00;100670.22;5039847;28;20055;-76
2023/01/02 03:05:45;;;;;;;15.30;7.72;;;;;;;-2.92;100.00;100677.28;5056196;28;20039;-75
2023/01/02 03:08:17;;;;;;;17.17;7.50;;;;;;;-2.77;100.00;100669.44;5039388;28;20029;-75
2023/01/02 03:10:55;;;;;;;13.98;7.65;;;;;;;-2.76;100.00;100655.34;5056156;28;20033;-76
2023/01/02 03:14:03;;;;;;;12.77;6.80;;;;;;;-2.70;100.00;100678.63;5039567;28;20032;-75
2023/01/02 03:16:32;;;;;;;14.80;7.97;;;;;;;-2.71;100.00;100677.78;5039352;28;20578;-76
2023/01/02 03:19:00;;;;;;;14.48;7.40;;;;;;;-2.78;100.00;100671.22;5072187;28;20466;-76
2023/01/02 03:21:42;;;;;;;17.83;8.55;;;;;;;-2.68;100.00;100690.75;5073347;28;20024;-76
2023/01/02 03:24:10;;;;;;;18.23;7.70;;;;;;;-2.73;100.00;100679.66;5039474;28;20024;-75
2023/01/02 03:26:37;;;;;;;17.85;8.40;;;;;;;-2.70;100.00;100686.53;5055560;28;20029;-76
2023/01/02 03:29:07;;;;;;;21.60;7.57;;;;;;;-2.81;100.00;100681.06;5038950;28;20028;-75
2023/01/02 03:31:36;;;;;;;11.02;4.90;;;;;;;-2.93;100.00;100690.56;5055861;28;20066;-76
2023/01/02 03:34:10;;;;;;;13.57;5.97;;;;;;;-2.98;100.00;100697.88;5055861;28;20044;-75
2023/01/02 03:36:37;;;;;;;17.60;6.78;;;;;;;-3.19;100.00;100679.78;5039372;28;20115;-75
2023/01/02 03:39:06;;;;;;;19.73;7.75;;;;;;;-3.09;100.00;100703.78;5055693;28;20036;-76
2023/01/02 03:41:41;;;;;;;21.48;8.40;;;;;;;-3.19;100.00;100702.59;5055681;28;20032;-75
2023/01/02 03:44:08;;;;;;;18.33;8.60;;;;;;;-3.26;100.00;100711.78;5039179;28;20119;-77
2023/01/02 03:46:47;;;;;;;15.35;6.40;;;;;;;-3.35;100.00;100713.16;5055765;28;20124;-75
2023/01/02 03:49:15;;;;;;;15.88;6.40;;;;;;;-3.41;100.00;100714.38;5055749;28;20340;-75
2023/01/02 03:51:40;;;;;;;22.27;8.02;;;;;;;-3.45;100.00;100709.38;5055149;28;20028;-76
2023/01/02 03:54:07;;;;;;;18.90;7.22;;;;;;;-3.47;100.00;100703.34;5039363;28;20078;-76
2023/01/02 03:56:57;;;;;;;13.23;5.03;;;;;;;-3.41;100.00;100717.00;5059418;28;20457;-75
2023/01/02 03:59:40;;;;;;;12.80;5.97;;;;;;;-3.47;100.00;100716.47;5059753;28;20056;-76
2023/01/02 04:02:18;;;;;;;11.32;5.80;;;;;;;-3.59;100.00;100718.88;5043068;28;20035;-78
2023/01/02 04:04:52;;;;;;;9.38;5.97;;;;;;;-3.71;100.00;100732.69;5059204;28;20029;-76
2023/01/02 04:07:41;;;;;;;9.65;4.65;;;;;;;-3.83;100.00;100725.50;5042873;28;20182;-75
2023/01/02 04:10:11;;;;;;;10.18;4.65;;;;;;;-3.83;100.00;100725.50;5075220;28;20114;-74
2023/01/02 04:12:38;;;;;;;6.93;3.95;;;;;;;-3.84;100.00;100734.31;5059040;28;20027;-77
2023/01/02 04:15:07;;;;;;;5.05;3.83;;;;;;;-3.80;100.00;100733.22;5059530;28;20039;-77
2023/01/02 04:17:38;;;;;;;8.85;3.92;;;;;;;-3.82;100.00;100735.91;5043003;28;20545;-76
2023/01/02 04:20:07;;;;;;;5.93;3.90;;;;;;;-3.77;100.00;100723.38;5042752;28;20033;-76
2023/01/02 04:22:44;;;;;;;5.10;4.15;;;;;;;-3.67;100.00;100731.59;5026414;28;20040;-76
2023/01/02 04:25:15;;;;;;;7.32;4.78;;;;;;;-3.68;100.00;100734.31;5042432;28;20029;-76
2023/01/02 04:27:56;;;;;;;6.82;4.00;;;;;;;-3.76;100.00;100727.72;5059022;28;20059;-76
2023/01/02 04:30:21;;;;;;;6.70;4.50;;;;;;;-3.78;100.00;100731.34;5059091;28;20024;-76
2023/01/02 04:32:48;;;;;;;8.25;4.32;;;;;;;-4.00;100.00;100701.00;5042402;28;20433;-75
2023/01/02 04:35:17;;;;;;;6.25;2.90;;;;;;;-3.93;100.00;100735.66;5059127;28;20035;-76
2023/01/02 04:37:44;;;;;;;9.10;3.97;;;;;;;-3.91;100.00;100732.97;5042413;28;20028;-76
2023/01/02 04:40:30;;;;;;;6.22;3.53;;;;;;;-3.85;100.00;100736.09;5075335;28;20434;-76
2023/01/02 04:43:19;;;;;;;5.72;4.22;;;;;;;-3.84;100.00;100739.56;5041526;28;20471;-76
2023/01/02 04:45:49;;;;;;;5.78;2.53;;;;;;;-3.88;100.00;100735.41;5042225;28;20107;-75
2023/01/02 04:48:15;;;;;;;7.90;3.85;;;;;;;-3.89;100.00;100742.47;5041989;28;20085;-76
2023/01/02 04:50:44;;;;;;;9.60;3.70;;;;;;;-3.95;100.00;100736.69;5075314;28;20036;-75
2023/01/02 04:53:10;;;;;;;6.47;3.67;;;;;;;-3.97;100.00;100742.00;5042243;28;20028;-76
2023/01/02 04:55:37;;;;;;;15.25;4.68;;;;;;;-4.10;100.00;100733.97;5058691;28;20107;-75
2023/01/02 04:58:03;;;;;;;8.88;4.43;;;;;;;-4.04;100.00;100740.66;5025838;28;20032;-75
2023/01/02 05:00:28;;;;;;;8.27;3.58;;;;;;;-4.01;100.00;100746.59;5058668;28;20024;-75
2023/01/02 05:02:54;;;;;;;11.00;5.40;;;;;;;-4.04;100.00;100738.88;5042081;28;20044;-75
2023/01/02 05:05:20;;;;;;;10.88;4.90;;;;;;;-4.05;100.00;100752.06;5041499;28;20074;-76
2023/01/02 05:07:46;;;;;;;3.30;2.55;;;;;;;-4.13;100.00;100747.22;5041826;28;20390;-75
2023/01/02 05:10:11;;;;;;;5.95;2.95;;;;;;;-4.04;100.00;100749.38;5074982;28;20077;-76
2023/01/02 05:12:38;;;;;;;8.82;3.92;;;;;;;-3.92;100.00;100747.00;5041901;28;20032;-75
2023/01/02 05:15:05;;;;;;;9.05;4.57;;;;;;;-3.82;100.00;100754.31;5058414;28;20067;-75
2023/01/02 05:17:35;;;;;;;8.05;4.95;;;;;;;-3.93;100.00;100761.09;5074467;28;20036;-76
2023/01/02 05:20:01;;;;;;;3.45;2.67;;;;;;;-4.08;100.00;100758.34;5074785;28;20466;-76
2023/01/02 05:25:10;;;;;;;3.33;2.17;;;;;;;-4.14;100.00;100763.09;5060675;28;20558;-76
2023/01/02 05:27:36;;;;;;;10.32;4.60;;;;;;;-4.16;100.00;100773.66;5041424;28;20036;-76
2023/01/02 05:30:02;;;;;;;13.23;5.20;;;;;;;-4.24;100.00;100767.97;5057913;28;20071;-76
2023/01/02 05:32:28;;;;;;;7.97;3.65;;;;;;;-4.32;100.00;100770.16;5057988;28;20505;-76
2023/01/02 05:34:54;;;;;;;8.80;3.20;;;;;;;-4.29;100.00;100777.84;5041097;28;20059;-75
2023/01/02 05:37:19;;;;;;;8.75;3.78;;;;;;;-4.31;100.00;100775.31;5041337;28;20110;-75
2023/01/02 05:39:45;;;;;;;7.28;4.15;;;;;;;-4.30;100.00;100776.16;5057744;28;20021;-75
2023/01/02 05:42:11;;;;;;;7.97;4.40;;;;;;;-4.26;100.00;100785.56;5057421;28;20444;-77
2023/01/02 05:44:37;;;;;;;4.63;3.78;;;;;;;-4.26;100.00;100789.06;5057742;28;20067;-77
2023/01/02 05:47:02;;;;;;;4.57;3.55;;;;;;;-4.33;100.00;100798.19;5041114;28;20037;-77
2023/01/02 05:49:28;;;;;;;13.60;4.10;;;;;;;-4.37;100.00;100803.66;5057199;28;20062;-74
2023/01/02 05:51:54;;;;;;;4.38;2.53;;;;;;;-4.46;100.00;100805.00;5057388;28;20032;-75
2023/01/02 05:54:19;;;;;;;5.93;4.18;;;;;;;-4.45;100.00;100801.44;5041070;28;20068;-75
2023/01/02 05:56:45;;;;;;;4.93;3.55;;;;;;;-4.44;100.00;100803.97;5040259;28;20127;-76
2023/01/02 05:59:14;;;;;;;4.85;3.53;;;;;;;-4.42;100.00;100807.38;5057402;28;20051;-77
2023/01/02 06:01:40;;;;;;;5.88;4.05;;;;;;;-4.50;100.00;100813.94;5040720;28;20036;-75
2023/01/02 06:04:06;;;;;;;9.23;3.30;;;;;;;-4.51;100.00;100820.97;5056993;28;20041;-75
2023/01/02 06:06:34;;;;;;;7.30;3.28;;;;;;;-4.57;100.00;100823.91;5056896;28;20033;-78
2023/01/02 06:09:00;;;;;;;1.02;0.98;;;;;;;-4.58;100.00;100830.06;5073643;28;20040;-75
2023/01/02 06:11:29;;;;;;;7.03;2.28;;;;;;;-4.75;100.00;100793.34;5041320;28;20115;-76
2023/01/02 06:13:55;;;;;;;6.63;3.05;;;;;;;-4.49;100.00;100837.50;5024328;28;20125;-76
2023/01/02 06:16:22;;;;;;;9.60;3.40;;;;;;;-4.48;100.00;100844.41;5057041;28;20020;-75
2023/01/02 06:18:48;;;;;;;3.17;2.45;;;;;;;-4.46;100.00;100842.56;5056161;28;20025;-75
2023/01/02 06:21:16;;;;;;;6.55;3.40;;;;;;;-4.45;100.00;100849.50;5040498;28;20032;-76
2023/01/02 06:23:43;;;;;;;8.65;4.22;;;;;;;-4.47;100.00;100842.66;5040104;28;20048;-76
2023/01/02 06:26:11;;;;;;;11.30;5.28;;;;;;;-4.73;100.00;100815.13;5040379;28;20484;-76
2023/01/02 06:28:38;;;;;;;3.92;2.35;;;;;;;-4.54;100.00;100859.66;5073305;28;20063;-75
2023/01/02 06:31:09;;;;;;;7.60;3.53;;;;;;;-4.54;100.00;100873.59;5073384;28;20031;-76
2023/01/02 06:33:37;;;;;;;6.47;3.75;;;;;;;-4.56;100.00;100862.31;5057057;28;20024;-76
2023/01/02 06:36:06;;;;;;;6.20;3.85;;;;;;;-4.52;100.00;100870.91;5040183;28;20036;-76
2023/01/02 06:38:31;;;;;;;9.45;4.25;;;;;;;-4.65;100.00;100879.38;5056551;28;20177;-76
2023/01/02 06:40:59;;;;;;;5.22;3.50;;;;;;;-4.72;100.00;100877.13;5040154;28;20449;-76
2023/01/02 06:43:25;;;;;;;4.07;2.58;;;;;;;-4.61;100.00;100869.56;5056469;28;20051;-75
2023/01/02 06:45:51;;;;;;;3.10;2.42;;;;;;;-4.47;100.00;100877.63;5072758;28;20497;-76
2023/01/02 06:48:17;;;;;;;1.45;1.40;;;;;;;-4.45;100.00;100860.00;5039809;28;20025;-76
2023/01/02 06:50:44;;;;;;;2.80;2.30;;;;;;;-4.21;100.00;100885.94;5039869;28;20025;-75
2023/01/02 06:53:11;;;;;;;3.85;2.40;;;;;;;-4.24;100.00;100865.09;5072947;28;20033;-76
2023/01/02 06:55:37;;;;;;;3.80;2.15;;;;;;;-4.18;100.00;100885.81;5074108;28;20075;-75
2023/01/02 06:58:03;;;;;;;9.77;3.15;;;;;;;-4.33;100.00;100876.94;5056373;28;20036;-75
2023/01/02 07:00:29;;;;;;;5.68;3.67;;;;;;;-4.49;100.00;100879.47;5039886;28;20052;-75
2023/01/02 07:02:55;;;;;;;9.68;3.58;;;;;;;-4.58;100.00;100876.44;5039403;28;20082;-76
2023/01/02 07:05:21;;;;;;;3.80;2.28;;;;;;;-4.65;100.00;100875.91;5039711;28;20111;-76
2023/01/02 07:07:46;;;;;;;4.63;2.42;;;;;;;-4.78;100.00;100873.03;5055936;28;20086;-75
2023/01/02 07:10:12;;;;;;;6.57;2.65;;;;;;;-4.83;100.00;100889.94;5039680;28;20047;-75
2023/01/02 07:12:38;;;;;;;3.25;2.95;;;;;;;-4.87;100.00;100887.47;5055638;28;20048;-76
2023/01/02 07:15:05;;;;;;;8.73;3.67;;;;;;;-4.83;100.00;100895.19;5039271;28;20067;-76
2023/01/02 07:17:32;;;;;;;2.75;2.15;;;;;;;-4.90;100.00;100889.38;5056093;28;20036;-75
2023/01/02 07:19:57;;;;;;;4.57;2.72;;;;;;;-4.82;100.00;100899.50;5039464;28;20486;-75
2023/01/02 07:22:23;;;;;;;3.30;2.45;;;;;;;-4.78;100.00;100899.28;5055627;28;20020;-75
2023/01/02 07:24:49;;;;;;;6.85;2.65;;;;;;;-4.81;100.00;100893.34;5055868;28;20367;-75
2023/01/02 07:27:15;;;;;;;4.35;3.03;;;;;;;-4.85;100.00;100900.50;5039266;28;20039;-75
2023/01/02 07:29:40;;;;;;;6.75;3.08;;;;;;;-5.02;100.00;100897.84;5039008;28;20131;-75
2023/01/02 07:32:06;;;;;;;5.28;2.97;;;;;;;-5.18;100.00;100895.09;5039356;28;20481;-75
2023/01/02 07:34:32;;;;;;;7.35;3.08;;;;;;;-4.97;100.00;100904.56;5072097;28;20025;-75
2023/01/02 07:36:58;;;;;;;5.55;2.70;;;;;;;-4.82;100.00;100909.97;5038532;28;20556;-75
2023/01/02 07:39:23;;;;;;;6.93;3.50;;;;;;;-4.70;100.00;100909.41;5039236;28;20056;-74
2023/01/02 07:41:52;;;;;;;3.10;2.30;;;;;;;-4.78;100.00;100907.16;5039825;28;20036;-75
2023/01/02 07:44:18;;;;;;;0.98;0.98;;;;;;;-4.87;100.00;100912.81;5055305;28;20048;-75
2023/01/02 07:46:44;;;;;;;5.10;2.50;;;;;;;-5.01;100.00;100913.47;5055374;28;20086;-75
2023/01/02 07:49:13;;;;;;;4.22;2.90;;;;;;;-5.03;100.00;100920.56;5038840;28;20055;-75
2023/01/02 07:51:38;;;;;;;3.95;2.13;;;;;;;-5.06;100.00;100927.75;5039121;28;20028;-74
2023/01/02 07:54:04;;;;;;;5.68;3.22;;;;;;;-5.05;100.00;100934.66;5039113;28;20052;-75
2023/01/02 07:56:32;;;;;;;7.25;2.75;;;;;;;-5.12;100.00;100928.88;5039101;28;20071;-75
2023/01/02 07:58:57;;;;;;;3.03;1.50;;;;;;;-5.16;100.00;100945.66;5055630;28;20029;-74
2023/01/02 08:01:23;;;;;;;3.80;2.50;;;;;;;-5.16;100.00;100932.53;5055412;28;20402;-75
2023/01/02 08:03:49;;;;;;;3.20;2.47;;;;;;;-5.04;100.00;100934.59;5038733;28;20109;-76
2023/01/02 08:06:16;;;;;;;5.07;2.67;;;;;;;-5.00;100.00;100940.56;5039040;28;20028;-75
2023/01/02 08:08:42;;;;;;;5.75;2.75;;;;;;;-5.11;100.00;100943.66;5038736;28;20029;-75
2023/01/02 08:11:12;;;;;;;6.97;2.55;;;;;;;-5.21;100.00;100956.38;5038974;28;20028;-75
2023/01/02 08:13:37;;;;;;;3.83;1.98;;;;;;;-5.29;100.00;100958.50;5055435;28;20039;-75
2023/01/02 08:16:10;;;;;;;5.53;3.03;;;;;;;-5.31;100.00;100949.84;5038925;28;20406;-76
2023/01/02 08:18:39;;;;;;;4.07;2.67;;;;;;;-5.22;100.00;100954.66;5055161;28;20382;-76
2023/01/02 08:21:05;;;;;;;4.00;3.05;;;;;;;-5.12;100.00;100957.72;5055739;28;20482;-76
2023/01/02 08:23:31;;;;;;;3.03;2.17;;;;;;;-5.11;100.00;100964.66;5071918;28;20029;-76
2023/01/02 08:25:59;;;;;;;3.35;2.22;;;;;;;-5.02;100.00;100973.88;5055486;28;20082;-75
2023/01/02 08:28:25;;;;;;;5.97;2.25;;;;;;;-5.02;100.00;100972.09;5037707;28;20074;-76
2023/01/02 08:30:52;;;;;;;4.32;2.00;;;;;;;-4.99;100.00;100968.50;5055123;28;20063;-76
2023/01/02 08:33:18;;;;;;;15.85;2.88;;;;;;;-4.98;100.00;100965.78;5055300;28;20119;-75
2023/01/02 08:35:44;;;;;;;4.63;1.92;;;;;;;-4.92;100.00;100977.75;5038685;28;20063;-76
2023/01/02 08:38:10;;;;;;;2.17;2.00;;;;;;;-4.99;100.00;100969.34;5055503;28;20111;-75
2023/01/02 08:40:35;;;;;;;4.03;2.15;;;;;;;-4.94;100.00;100987.50;5055619;28;20359;-76
2023/01/02 08:43:01;;;;;;;5.22;2.58;;;;;;;-4.95;100.00;100977.91;5041883;28;20509;-75
2023/01/02 08:45:27;;;;;;;7.57;2.30;;;;;;;-4.86;100.00;100980.94;5042295;28;20029;-76
2023/01/02 08:47:53;;;;;;;3.35;1.98;;;;;;;-4.82;100.00;100992.13;5074895;28;20047;-75
2023/01/02 08:50:21;;;;;;;3.10;1.95;;;;;;;-4.83;100.00;100990.44;5042287;28;20121;-75
2023/01/02 08:52:47;;;;;;;4.32;2.63;;;;;;;-4.72;100.00;100997.81;5074869;28;20394;-76
2023/01/02 08:55:13;;;;;;;2.72;1.80;;;;;;;-4.60;100.00;100997.25;5041870;28;20028;-76
2023/01/02 08:57:39;;;;;;;6.07;2.60;;;;;;;-4.51;100.00;101004.66;5042093;28;20028;-76
2023/01/02 09:00:08;;;;;;;3.63;1.33;;;;;;;-4.47;100.00;100994.88;5058366;28;20028;-76
2023/01/02 09:02:34;;;;;;;1.23;0.85;;;;;;;-4.47;100.00;101002.75;5042005;28;20036;-75
2023/01/02 09:04:59;;;;;;;6.28;1.33;;;;;;;-4.43;100.00;101004.31;5041878;28;20105;-75
2023/01/02 09:07:25;;;;;;;7.05;3.28;;;;;;;-4.45;100.00;100995.66;5057941;28;20052;-74
2023/01/02 09:09:51;;;;;;;4.18;2.00;;;;;;;-4.53;100.00;100998.63;5058109;28;20035;-74
2023/01/02 09:12:16;;;;;;;6.32;3.45;;;;;;;-4.53;100.00;101005.66;5058369;28;20463;-75
2023/01/02 09:14:42;;;;;;;10.70;4.70;;;;;;;-4.57;100.00;101014.63;5041884;28;20047;-75
2023/01/02 09:17:08;;;;;;;14.88;5.10;;;;;;;-4.56;100.00;101019.78;5057946;28;20522;-74
2023/01/02 09:19:34;;;;;;;6.57;2.35;;;;;;;-4.53;100.00;101022.25;5041571;28;20036;-77
2023/01/02 09:22:00;;;;;;;1.00;1.00;;;;;;;-4.66;100.00;101013.25;5057887;28;20123;-74
2023/01/02 09:24:27;;;;;;;11.50;4.13;;;;;;;-4.66;100.00;101024.63;5074718;28;20024;-76
2023/01/02 09:26:52;;;;;;;5.13;2.45;;;;;;;-4.52;100.00;101036.25;5058180;28;20040;-75
2023/01/02 09:29:19;;;;;;;5.28;1.35;;;;;;;-4.45;100.00;101033.22;5057956;28;20074;-76
2023/01/02 09:31:45;;;;;;;5.55;2.72;;;;;;;-4.26;100.00;101043.72;5041402;28;20036;-76
2023/01/02 09:34:11;;;;;;;4.85;3.00;;;;;;;-4.19;100.00;101033.75;5057609;28;20050;-75
2023/01/02 09:36:37;;;;;;;2.65;2.03;;;;;;;-4.24;100.00;101015.59;5057785;28;20056;-75
2023/01/02 09:39:03;;;;;;;5.32;2.72;;;;;;;-4.04;100.00;101040.06;5041383;28;20436;-75
2023/01/02 09:41:38;;;;;;;14.20;4.43;;;;;;;-4.05;100.00;101033.97;5041210;28;20037;-75
2023/01/02 09:44:10;;;;;;;11.98;5.22;;;;;;;-4.04;100.00;101032.16;5074108;28;20108;-75
2023/01/02 09:46:38;;;;;;;10.73;5.22;;;;;;;-3.69;100.00;101048.78;5074553;28;20434;-75
2023/01/02 09:49:04;;;;;;;10.93;5.22;;;;;;;-3.33;100.00;101053.13;5057072;28;20032;-77
2023/01/02 09:51:31;;;;;;;15.20;7.07;;;;;;;-3.24;100.00;101050.00;5056645;28;20036;-79
2023/01/02 09:53:56;;;;;;;8.20;4.15;;;;;;;-3.11;100.00;101056.31;5074216;28;20039;-77
2023/01/02 09:56:37;;;;;;;9.93;3.72;;;;;;;-2.96;100.00;101027.50;5040976;28;20390;-77
2023/01/02 09:59:14;;;;;;;12.23;4.20;;;;;;;-2.17;100.00;101042.44;5074053;28;20119;-77
2023/01/02 10:01:59;;;;;;;13.45;6.00;;;;;;;-1.65;100.00;101061.34;5074117;28;20041;-78
2023/01/02 10:04:37;;;;;;;10.27;6.75;;;;;;;-1.39;100.00;101046.63;5040812;28;20089;-78
2023/01/02 10:07:41;;;;;;;9.88;4.32;;;;;;;-0.89;100.00;101069.09;5057308;28;20025;-79
2023/01/02 10:10:26;;;;;;;10.13;5.32;;;;;;;-1.01;100.00;101082.19;5056845;28;20025;-78
2023/01/02 10:13:12;;;;;;;7.47;5.03;;;;;;;-0.69;100.00;101072.28;5057420;28;20040;-79
2023/01/02 10:15:41;;;;;;;15.18;6.50;;;;;;;-0.50;100.00;101072.84;5057137;28;20090;-79
2023/01/02 10:18:30;;;;;;;15.25;7.32;;;;;;;0.39;100.00;101077.63;5057042;28;20475;-80
2023/01/02 10:21:01;;;;;;;12.23;5.78;;;;;;;1.59;100.00;101071.13;5073303;28;20050;-79
2023/01/02 10:23:35;;;;;;;10.15;5.88;;;;;;;2.72;100.00;101062.72;5057031;28;20036;-79
2023/01/02 10:26:04;;;;;;;;;;;;;;;3.61;96.96;101079.66;5057443;28;20123;-77
2023/01/02 10:28:40;;;;;;;8.38;4.95;;;;;;;4.24;93.31;101074.56;5056649;28;20384;-79
2023/01/02 10:31:18;;;;;;;7.90;4.10;;;;;;;4.68;91.18;101066.47;5073212;28;20039;-79
2023/01/02 10:33:52;;;;;;;7.97;3.42;;;;;;;5.32;88.67;101082.28;5072941;28;20073;-78
2023/01/02 10:36:41;;;;;;;10.30;4.80;;;;;;;5.61;85.90;101052.16;5040240;28;20035;-77
2023/01/02 10:39:12;;;;;;;9.23;4.05;;;;;;;5.84;84.84;101063.47;5072727;28;20044;-77
2023/01/02 10:41:38;;;;;;;4.35;2.28;;;;;;;5.91;85.00;101089.47;5039942;28;20044;-78
2023/01/02 10:44:09;;;;;;;2.22;1.90;;;;;;;5.75;86.75;101093.66;5056702;28;20037;-77
2023/01/02 10:46:36;;;;;;;3.92;2.17;;;;;;;5.71;87.38;101091.22;5040225;28;20455;-78
2023/01/02 10:49:04;;;;;;;6.70;2.85;;;;;;;5.48;88.89;101097.78;5056250;28;20032;-77
2023/01/02 10:51:31;;;;;;;4.85;2.85;;;;;;;5.63;88.51;101091.06;5056459;28;20048;-77
2023/01/02 10:54:05;;;;;;;1.98;1.80;;;;;;;5.89;87.62;101101.25;5073004;28;20484;-78
2023/01/02 10:56:33;;;;;;;1.55;1.42;;;;;;;5.50;89.70;101098.47;5040061;28;20044;-77
2023/01/02 10:59:00;;;;;;;0.98;0.98;;;;;;;5.68;89.53;101101.34;5072617;28;20051;-77
2023/01/02 11:01:26;;;;;;;2.95;1.83;;;;;;;5.15;92.73;101105.03;5056113;28;20436;-77
2023/01/02 11:03:54;;;;;;;1.00;1.00;;;;;;;4.69;96.27;101113.47;5039280;28;20056;-77
2023/01/02 11:06:25;;;;;;;0.77;0.77;;;;;;;5.09;94.42;101112.72;5072666;28;20651;-77
2023/01/02 11:09:17;;;;;;;0.60;0.60;;;;;;;5.27;94.02;101109.31;5072390;28;20111;-77
2023/01/02 11:11:54;;;;;;;0.60;0.60;;;;;;;5.89;91.53;101114.59;5056062;28;20056;-77
2023/01/02 11:14:27;;;;;;;0.60;0.60;;;;;;;6.26;90.72;101117.50;5056267;28;20466;-77
2023/01/02 11:17:01;;;;;;;0.60;0.60;;;;;;;6.34;90.31;101114.97;5072716;28;20028;-77
2023/01/02 11:19:26;;;;;;;0.60;0.60;;;;;;;6.39;89.94;101109.22;5072650;28;20024;-78
2023/01/02 11:21:52;;;;;;;0.50;0.50;;;;;;;6.63;89.36;101103.47;5055940;28;20032;-76
2023/01/02 11:24:18;;;;;;;0.50;0.50;;;;;;;6.11;91.12;101109.06;5039414;28;20115;-77
2023/01/02 11:26:46;;;;;;;0.60;0.60;;;;;;;5.75;92.97;101093.66;5055949;28;20471;-77
2023/01/02 11:29:25;;;;;;;0.50;0.50;;;;;;;5.72;94.28;101103.59;5039199;28;20041;-78